createdAt,value
2024-05-09T00:01:00.146Z,96649.50
2024-05-09T00:02:01.912Z,96652.25
2024-05-09T00:03:07.108Z,96649.81
2024-05-09T00:04:09.117Z,96647.56
2024-05-09T00:05:11.518Z,96640.97
2024-05-09T00:06:13.591Z,96636.59
2024-05-09T00:07:15.396Z,96648.38
2024-05-09T00:08:17.191Z,96639.34
2024-05-09T00:09:18.935Z,96643.69
2024-05-09T00:10:28.826Z,96645.63
2024-05-09T00:11:36.905Z,96647.56
2024-05-09T00:12:38.603Z,96635.28
2024-05-09T00:13:40.350Z,96643.22
2024-05-09T00:14:42.105Z,96641.75
2024-05-09T00:15:43.812Z,96646.44
2024-05-09T00:16:45.632Z,96640.16
2024-05-09T00:17:47.609Z,96638.22
2024-05-09T00:18:49.512Z,96637.72
2024-05-09T00:19:51.228Z,96640.47
2024-05-09T00:20:52.976Z,96641.75
2024-05-09T00:21:54.721Z,96637.72
2024-05-09T00:22:56.453Z,96640.47
2024-05-09T00:23:58.221Z,96634.16
2024-05-09T00:24:59.980Z,96640.16
2024-05-09T00:26:01.756Z,96639.03
2024-05-09T00:27:03.668Z,96633.03
2024-05-09T00:28:06.103Z,96634.34
2024-05-09T00:29:07.735Z,96626.09
2024-05-09T00:30:14.358Z,96628.03
2024-05-09T00:31:19.385Z,96634.50
2024-05-09T00:32:21.321Z,96632.88
2024-05-09T00:33:23.360Z,96624.00
2024-05-09T00:34:25.283Z,96629.66
2024-05-09T00:35:27.110Z,96624.97
2024-05-09T00:36:28.895Z,96619.97
2024-05-09T00:37:30.634Z,96625.13
2024-05-09T00:38:32.446Z,96623.19
2024-05-09T00:39:34.306Z,96620.94
2024-05-09T00:40:40.394Z,96618.19
2024-05-09T00:41:44.189Z,96614.31
2024-05-09T00:42:47.017Z,96619.81
2024-05-09T00:43:48.722Z,96619.50
2024-05-09T00:44:50.459Z,96615.94
2024-05-09T00:45:53.659Z,96613.03
2024-05-09T00:46:56.313Z,96623.69
2024-05-09T00:47:59.697Z,96617.53
2024-05-09T00:49:01.667Z,96618.53
2024-05-09T00:50:05.534Z,96625.31
2024-05-09T00:51:09.642Z,96616.72
2024-05-09T00:52:11.615Z,96616.72
2024-05-09T00:53:14.685Z,96624.31
2024-05-09T00:54:16.751Z,96618.03
2024-05-09T00:55:18.563Z,96611.41
2024-05-09T00:56:21.325Z,96617.69
2024-05-09T00:57:24.201Z,96619.31
2024-05-09T00:58:27.870Z,96617.06
2024-05-09T00:59:30.112Z,96611.91
2024-05-09T01:00:38.407Z,96615.13
2024-05-09T01:01:43.446Z,96618.19
2024-05-09T01:02:45.423Z,96618.19
2024-05-09T01:03:49.568Z,96615.13
2024-05-09T01:04:53.436Z,96615.94
2024-05-09T01:05:55.340Z,96614.63
2024-05-09T01:06:57.140Z,96610.44
2024-05-09T01:07:58.912Z,96617.53
2024-05-09T01:09:00.732Z,96614.31
2024-05-09T01:10:02.502Z,96609.63
2024-05-09T01:11:04.965Z,96608.81
2024-05-09T01:12:07.094Z,96615.13
2024-05-09T01:13:08.841Z,96611.91
2024-05-09T01:14:10.687Z,96613.19
2024-05-09T01:15:12.458Z,96608.03
2024-05-09T01:16:14.181Z,96611.25
2024-05-09T01:17:16.124Z,96609.78
2024-05-09T01:18:18.041Z,96616.41
2024-05-09T01:19:29.880Z,96613.66
2024-05-09T01:20:40.508Z,96610.59
2024-05-09T01:21:45.033Z,96614.13
2024-05-09T01:22:47.252Z,96619.13
2024-05-09T01:23:49.035Z,96604.97
2024-05-09T01:24:52.010Z,96615.59
2024-05-09T01:25:53.895Z,96617.19
2024-05-09T01:26:55.749Z,96610.59
2024-05-09T01:27:57.469Z,96619.13
2024-05-09T01:28:59.276Z,96609.78
2024-05-09T01:30:00.977Z,96619.13
2024-05-09T01:31:02.693Z,96614.31
2024-05-09T01:32:54.939Z,96623.00
2024-05-09T01:33:56.966Z,96620.44
2024-05-09T01:34:58.779Z,96615.78
2024-05-09T01:36:00.638Z,96615.78
2024-05-09T01:37:02.334Z,96619.31
2024-05-09T01:38:04.378Z,96623.19
2024-05-09T01:39:06.314Z,96620.13
2024-05-09T01:40:12.325Z,96612.69
2024-05-09T01:41:19.990Z,96620.63
2024-05-09T01:42:21.742Z,96613.19
2024-05-09T01:43:23.440Z,96612.84
2024-05-09T01:44:25.331Z,96613.66
2024-05-09T01:45:27.138Z,96613.66
2024-05-09T01:46:28.814Z,96612.03
2024-05-09T01:47:30.841Z,96617.88
2024-05-09T01:48:32.733Z,96611.56
2024-05-09T01:49:36.257Z,96615.94
2024-05-09T01:50:41.448Z,96611.25
2024-05-09T01:51:44.798Z,96617.53
2024-05-09T01:52:46.473Z,96610.44
2024-05-09T01:53:48.516Z,96605.28
2024-05-09T01:54:50.227Z,96612.03
2024-05-09T01:55:51.991Z,96608.97
2024-05-09T01:56:53.734Z,96610.44
2024-05-09T01:57:55.445Z,96611.06
2024-05-09T01:58:57.409Z,96602.66
2024-05-09T01:59:59.117Z,96610.09
2024-05-09T02:01:00.912Z,96618.31
2024-05-09T02:02:02.781Z,96610.91
2024-05-09T02:03:05.070Z,96618.31
2024-05-09T02:04:07.102Z,96603.97
2024-05-09T02:05:09.080Z,96612.03
2024-05-09T02:06:10.946Z,96607.22
2024-05-09T02:07:12.803Z,96613.00
2024-05-09T02:08:22.122Z,96618.00
2024-05-09T02:09:24.071Z,96620.56
2024-05-09T02:10:32.116Z,96613.66
2024-05-09T02:11:43.543Z,96616.25
2024-05-09T02:12:45.330Z,96616.38
2024-05-09T02:13:47.081Z,96623.66
2024-05-09T02:14:48.773Z,96620.09
2024-05-09T02:15:52.426Z,96624.97
2024-05-09T02:16:54.278Z,96630.78
2024-05-09T02:17:56.349Z,96619.97
2024-05-09T02:18:58.424Z,96625.78
2024-05-09T02:20:00.350Z,96625.78
2024-05-09T02:21:02.211Z,96626.59
2024-05-09T02:22:04.201Z,96629.50
2024-05-09T02:23:06.780Z,96618.34
2024-05-09T02:24:08.883Z,96619.97
2024-05-09T02:25:10.570Z,96615.13
2024-05-09T02:26:12.318Z,96625.78
2024-05-09T02:27:14.053Z,96619.97
2024-05-09T02:28:15.763Z,96619.66
2024-05-09T02:29:17.570Z,96625.94
2024-05-09T02:30:26.410Z,96624.81
2024-05-09T02:31:37.662Z,96619.31
2024-05-09T02:32:39.517Z,96624.00
2024-05-09T02:33:41.424Z,96624.00
2024-05-09T02:34:44.326Z,96620.94
2024-05-09T02:35:46.130Z,96624.81
2024-05-09T02:36:47.880Z,96613.53
2024-05-09T02:37:49.637Z,96615.28
2024-05-09T02:38:51.358Z,96618.53
2024-05-09T02:39:53.064Z,96613.53
2024-05-09T02:40:54.819Z,96610.94
2024-05-09T02:41:56.582Z,96614.78
2024-05-09T02:42:58.307Z,96614.78
2024-05-09T02:44:00.038Z,96606.72
2024-05-09T02:45:02.086Z,96614.78
2024-05-09T02:46:03.979Z,96609.94
2024-05-09T02:47:05.843Z,96607.22
2024-05-09T02:48:10.865Z,96610.09
2024-05-09T02:49:13.102Z,96608.47
2024-05-09T02:50:19.422Z,96613.66
2024-05-09T02:51:27.783Z,96605.25
2024-05-09T02:52:29.484Z,96617.84
2024-05-09T02:53:31.372Z,96614.78
2024-05-09T02:54:33.118Z,96610.91
2024-05-09T02:55:35.036Z,96608.97
2024-05-09T02:56:36.813Z,96608.34
2024-05-09T02:57:38.581Z,96614.63
2024-05-09T02:58:40.271Z,96608.34
2024-05-09T02:59:43.398Z,96618.31
2024-05-09T03:00:45.139Z,96615.44
2024-05-09T03:01:47.025Z,96598.00
2024-05-09T03:02:49.056Z,96607.03
2024-05-09T03:03:52.272Z,96612.03
2024-05-09T03:04:54.202Z,96607.16
2024-05-09T03:05:55.916Z,96613.63
2024-05-09T03:06:57.644Z,96615.75
2024-05-09T03:07:59.495Z,96612.19
2024-05-09T03:09:01.250Z,96610.09
2024-05-09T03:10:04.551Z,96607.50
2024-05-09T03:11:09.256Z,96610.72
2024-05-09T03:12:11.150Z,96608.47
2024-05-09T03:13:15.318Z,96608.78
2024-05-09T03:14:18.684Z,96612.81
2024-05-09T03:15:22.486Z,96607.97
2024-05-09T03:16:24.213Z,96608.31
2024-05-09T03:17:26.058Z,96609.28
2024-05-09T03:18:28.002Z,96609.75
2024-05-09T03:19:29.814Z,96608.13
2024-05-09T03:20:34.918Z,96610.56
2024-05-09T03:21:41.555Z,96612.50
2024-05-09T03:22:43.213Z,96607.63
2024-05-09T03:23:45.058Z,96612.81
2024-05-09T03:24:46.800Z,96601.97
2024-05-09T03:25:48.548Z,96608.44
2024-05-09T03:26:50.316Z,96613.13
2024-05-09T03:27:53.340Z,96613.75
2024-05-09T03:28:55.028Z,96615.84
2024-05-09T03:29:56.768Z,96613.94
2024-05-09T03:30:58.476Z,96603.13
2024-05-09T03:32:00.645Z,96615.06
2024-05-09T03:33:02.787Z,96612.94
2024-05-09T03:34:04.986Z,96605.38
2024-05-09T03:35:07.339Z,96616.03
2024-05-09T03:36:11.101Z,96614.41
2024-05-09T03:37:13.826Z,96610.19
2024-05-09T03:38:15.529Z,96619.09
2024-05-09T03:39:17.434Z,96613.31
2024-05-09T03:40:23.683Z,96614.09
2024-05-09T03:41:28.188Z,96610.06
2024-05-09T03:42:29.913Z,96604.59
2024-05-09T03:43:31.688Z,96613.13
2024-05-09T03:44:33.486Z,96612.63
2024-05-09T03:45:35.162Z,96599.72
2024-05-09T03:46:40.625Z,96598.78
2024-05-09T03:47:42.608Z,96603.75
2024-05-09T03:48:44.555Z,96603.44
2024-05-09T03:49:46.503Z,96608.25
2024-05-09T03:50:48.510Z,96605.50
2024-05-09T03:51:50.199Z,96605.69
2024-05-09T03:52:51.914Z,96608.41
2024-05-09T03:53:53.718Z,96602.94
2024-05-09T03:54:55.507Z,96601.31
2024-05-09T03:55:57.572Z,96605.38
2024-05-09T03:56:59.323Z,96601.66
2024-05-09T03:58:01.110Z,96603.13
2024-05-09T03:59:03.032Z,96606.16
2024-05-09T04:00:07.497Z,96611.47
2024-05-09T04:01:16.632Z,96593.25
2024-05-09T04:02:18.410Z,96604.84
2024-05-09T04:03:20.559Z,96600.50
2024-05-09T04:04:22.600Z,96611.94
2024-05-09T04:05:25.647Z,96606.16
2024-05-09T04:06:27.801Z,96614.22
2024-05-09T04:07:29.499Z,96614.41
2024-05-09T04:08:31.259Z,96616.13
2024-05-09T04:09:32.959Z,96621.13
2024-05-09T04:10:35.452Z,96624.03
2024-05-09T04:11:37.516Z,96617.91
2024-05-09T04:12:39.299Z,96619.03
2024-05-09T04:13:41.043Z,96624.22
2024-05-09T04:14:43.052Z,96628.88
2024-05-09T04:15:44.755Z,96625.66
2024-05-09T04:16:46.467Z,96628.38
2024-05-09T04:17:51.592Z,96625.97
2024-05-09T04:18:53.675Z,96626.94
2024-05-09T04:19:55.742Z,96621.13
2024-05-09T04:20:59.486Z,96633.22
2024-05-09T04:22:01.725Z,96629.34
2024-05-09T04:23:03.601Z,96630.16
2024-05-09T04:24:05.552Z,96621.63
2024-05-09T04:25:07.368Z,96623.88
2024-05-09T04:26:09.389Z,96629.53
2024-05-09T04:27:11.181Z,96621.59
2024-05-09T04:28:13.568Z,96623.22
2024-05-09T04:29:15.366Z,96629.00
2024-05-09T04:30:25.555Z,96630.31
2024-05-09T04:31:36.360Z,96638.34
2024-05-09T04:32:38.150Z,96637.09
2024-05-09T04:33:40.126Z,96636.59
2024-05-09T04:34:41.969Z,96640.97
2024-05-09T04:35:44.151Z,96637.84
2024-05-09T04:36:46.043Z,96640.44
2024-05-09T04:37:48.112Z,96641.41
2024-05-09T04:38:49.812Z,96640.59
2024-05-09T04:39:51.510Z,96644.47
2024-05-09T04:40:53.559Z,96641.75
2024-05-09T04:41:55.381Z,96640.13
2024-05-09T04:42:57.060Z,96640.13
2024-05-09T04:43:58.802Z,96638.50
2024-05-09T04:45:00.571Z,96638.66
2024-05-09T04:46:02.335Z,96641.28
2024-05-09T04:47:04.220Z,96642.59
2024-05-09T04:48:06.605Z,96641.94
2024-05-09T04:49:08.605Z,96645.78
2024-05-09T04:50:14.522Z,96640.00
2024-05-09T04:51:19.256Z,96642.59
2024-05-09T04:52:21.000Z,96649.66
2024-05-09T04:53:22.798Z,96651.59
2024-05-09T04:54:33.709Z,96647.72
2024-05-09T04:55:38.270Z,96641.31
2024-05-09T04:56:40.139Z,96648.56
2024-05-09T04:57:41.877Z,96644.69
2024-05-09T04:58:43.598Z,96642.75
2024-05-09T04:59:45.313Z,96645.34
2024-05-09T05:00:47.128Z,96648.09
2024-05-09T05:01:49.003Z,96635.81
2024-05-09T05:02:50.999Z,96635.81
2024-05-09T05:03:54.866Z,96644.88
2024-05-09T05:04:59.406Z,96636.00
2024-05-09T05:06:01.316Z,96642.44
2024-05-09T05:07:03.218Z,96648.25
2024-05-09T05:08:05.845Z,96642.91
2024-05-09T05:09:07.603Z,96646.16
2024-05-09T05:10:14.889Z,96653.22
2024-05-09T05:11:22.927Z,96646.16
2024-05-09T05:12:43.140Z,96643.41
2024-05-09T05:13:44.838Z,96648.22
2024-05-09T05:14:46.838Z,96643.03
2024-05-09T05:15:57.340Z,96648.19
2024-05-09T05:16:59.897Z,96650.31
2024-05-09T05:18:01.768Z,96651.13
2024-05-09T05:19:04.369Z,96652.59
2024-05-09T05:20:08.744Z,96652.59
2024-05-09T05:21:12.206Z,96648.09
2024-05-09T05:22:14.435Z,96648.25
2024-05-09T05:23:18.336Z,96652.13
2024-05-09T05:24:20.092Z,96652.63
2024-05-09T05:25:21.810Z,96656.19
2024-05-09T05:26:23.589Z,96641.88
2024-05-09T05:27:25.324Z,96650.09
2024-05-09T05:28:27.083Z,96649.91
2024-05-09T05:29:29.777Z,96643.97
2024-05-09T05:30:34.706Z,96650.09
2024-05-09T05:31:36.962Z,96646.72
2024-05-09T05:32:38.923Z,96646.22
2024-05-09T05:33:40.995Z,96650.38
2024-05-09T05:34:45.811Z,96651.50
2024-05-09T05:35:48.017Z,96651.81
2024-05-09T05:36:49.832Z,96653.13
2024-05-09T05:37:51.820Z,96662.34
2024-05-09T05:38:53.594Z,96654.44
2024-05-09T05:39:55.394Z,96651.81
2024-05-09T05:40:57.207Z,96652.94
2024-05-09T05:41:59.049Z,96655.25
2024-05-09T05:43:00.813Z,96655.25
2024-05-09T05:44:02.622Z,96648.47
2024-05-09T05:45:06.693Z,96650.72
2024-05-09T05:46:09.262Z,96654.75
2024-05-09T05:47:11.088Z,96653.63
2024-05-09T05:48:13.954Z,96650.28
2024-05-09T05:49:16.008Z,96653.31
2024-05-09T05:50:24.784Z,96659.94
2024-05-09T05:51:33.976Z,96659.13
2024-05-09T05:52:35.678Z,96657.34
2024-05-09T05:53:37.623Z,96655.09
2024-05-09T05:54:39.434Z,96657.53
2024-05-09T05:55:41.651Z,96653.03
2024-05-09T05:56:43.460Z,96657.72
2024-05-09T05:57:45.186Z,96654.66
2024-05-09T05:58:47.053Z,96662.41
2024-05-09T05:59:48.835Z,96648.88
2024-05-09T06:00:50.796Z,96657.41
2024-05-09T06:01:52.634Z,96653.38
2024-05-09T06:02:54.572Z,96659.03
2024-05-09T06:03:56.434Z,96668.53
2024-05-09T06:04:58.397Z,96666.78
2024-05-09T06:06:03.017Z,96658.22
2024-05-09T06:07:05.126Z,96665.78
2024-05-09T06:08:07.138Z,96665.63
2024-05-09T06:09:08.904Z,96662.72
2024-05-09T06:10:17.332Z,96665.13
2024-05-09T06:11:23.443Z,96655.59
2024-05-09T06:12:25.424Z,96668.03
2024-05-09T06:13:27.264Z,96658.66
2024-05-09T06:14:29.072Z,96660.13
2024-05-09T06:15:30.904Z,96660.59
2024-05-09T06:16:32.629Z,96651.06
2024-05-09T06:17:34.492Z,96661.41
2024-05-09T06:18:36.474Z,96657.84
2024-05-09T06:19:38.476Z,96654.75
2024-05-09T06:20:42.303Z,96650.03
2024-05-09T06:21:45.291Z,96645.34
2024-05-09T06:22:47.142Z,96657.59
2024-05-09T06:23:49.658Z,96647.56
2024-05-09T06:24:51.447Z,96660.63
2024-05-09T06:25:53.442Z,96651.00
2024-05-09T06:26:55.253Z,96650.63
2024-05-09T06:27:57.015Z,96652.38
2024-05-09T06:29:00.900Z,96646.25
2024-05-09T06:30:02.980Z,96645.72
2024-05-09T06:31:05.423Z,96649.75
2024-05-09T06:32:07.428Z,96650.34
2024-05-09T06:33:12.302Z,96649.13
2024-05-09T06:34:18.723Z,96648.72
2024-05-09T06:35:20.643Z,96652.09
2024-05-09T06:36:22.473Z,96649.53
2024-05-09T06:37:24.215Z,96653.25
2024-05-09T06:38:26.475Z,96651.56
2024-05-09T06:39:28.246Z,96646.31
2024-05-09T06:40:37.144Z,96655.63
2024-05-09T06:41:41.179Z,96650.75
2024-05-09T06:42:42.983Z,96652.03
2024-05-09T06:43:44.772Z,96649.63
2024-05-09T06:44:46.574Z,96652.69
2024-05-09T06:45:49.238Z,96649.63
2024-05-09T06:46:51.168Z,96654.63
2024-05-09T06:47:53.238Z,96655.72
2024-05-09T06:48:56.319Z,96651.50
2024-05-09T06:49:58.428Z,96649.31
2024-05-09T06:51:00.823Z,96650.88
2024-05-09T06:52:02.841Z,96650.59
2024-05-09T06:53:04.768Z,96646.28
2024-05-09T06:54:09.570Z,96645.31
2024-05-09T06:55:11.343Z,96651.09
2024-05-09T06:56:13.999Z,96642.97
2024-05-09T06:57:15.725Z,96645.63
2024-05-09T06:58:17.462Z,96651.38
2024-05-09T06:59:19.247Z,96643.34
2024-05-09T07:00:27.563Z,96644.06
2024-05-09T07:01:36.890Z,96653.38
2024-05-09T07:02:38.870Z,96649.38
2024-05-09T07:03:41.662Z,96649.47
2024-05-09T07:04:43.566Z,96660.13
2024-05-09T07:05:46.674Z,96654.72
2024-05-09T07:06:49.257Z,96651.03
2024-05-09T07:07:51.121Z,96649.00
2024-05-09T07:08:53.753Z,96659.69
2024-05-09T07:09:55.491Z,96657.13
2024-05-09T07:10:57.293Z,96654.72
2024-05-09T07:11:59.184Z,96667.03
2024-05-09T07:13:00.895Z,96653.72
2024-05-09T07:14:02.691Z,96655.09
2024-05-09T07:15:04.752Z,96659.44
2024-05-09T07:16:06.732Z,96657.41
2024-05-09T07:17:08.588Z,96654.31
2024-05-09T07:18:21.151Z,96655.91
2024-05-09T07:19:23.146Z,96645.56
2024-05-09T07:20:32.485Z,96653.06
2024-05-09T07:21:36.620Z,96652.13
2024-05-09T07:22:38.329Z,96649.13
2024-05-09T07:23:40.694Z,96649.47
2024-05-09T07:24:43.103Z,96650.00
2024-05-09T07:25:44.941Z,96650.00
2024-05-09T07:26:46.765Z,96642.13
2024-05-09T07:27:49.024Z,96649.16
2024-05-09T07:28:50.865Z,96650.63
2024-05-09T07:29:52.765Z,96644.94
2024-05-09T07:30:54.452Z,96650.19
2024-05-09T07:31:56.438Z,96649.56
2024-05-09T07:32:58.532Z,96651.34
2024-05-09T07:34:01.260Z,96644.22
2024-05-09T07:35:03.215Z,96639.19
2024-05-09T07:36:05.249Z,96646.63
2024-05-09T07:37:12.667Z,96650.16
2024-05-09T07:38:14.726Z,96644.28
2024-05-09T07:39:16.526Z,96639.03
2024-05-09T07:40:28.432Z,96637.72
2024-05-09T07:41:37.373Z,96646.63
2024-05-09T07:42:39.238Z,96648.56
2024-05-09T07:43:40.991Z,96645.00
2024-05-09T07:44:42.987Z,96643.25
2024-05-09T07:45:52.016Z,96644.06
2024-05-09T07:53:30.268Z,96643.84
2024-05-09T07:53:49.639Z,96649.31
2024-05-09T07:54:54.219Z,96642.34
2024-05-09T07:55:56.875Z,96651.78
2024-05-09T07:56:58.973Z,96651.53
2024-05-09T07:58:00.822Z,96648.25
2024-05-09T07:59:02.629Z,96644.38
2024-05-09T08:00:06.499Z,96651.06
2024-05-09T08:01:08.624Z,96653.16
2024-05-09T08:02:10.690Z,96649.91
2024-05-09T08:03:12.617Z,96651.34
2024-05-09T08:04:14.527Z,96650.47
2024-05-09T08:05:16.478Z,96648.75
2024-05-09T08:06:18.388Z,96653.06
2024-05-09T08:07:20.942Z,96642.13
2024-05-09T08:08:23.325Z,96644.22
2024-05-09T08:09:24.965Z,96645.84
2024-05-09T08:10:29.091Z,96642.06
2024-05-09T08:11:32.412Z,96646.59
2024-05-09T08:12:34.281Z,96642.69
2024-05-09T08:13:36.054Z,96651.25
2024-05-09T08:14:37.799Z,96644.66
2024-05-09T08:15:39.957Z,96647.03
2024-05-09T08:16:42.842Z,96646.84
2024-05-09T08:17:44.643Z,96637.22
2024-05-09T08:18:46.466Z,96645.38
2024-05-09T08:19:48.346Z,96643.88
2024-05-09T08:20:51.001Z,96642.63
2024-05-09T08:21:52.750Z,96640.91
2024-05-09T08:22:54.485Z,96640.22
2024-05-09T08:23:56.271Z,96628.78
2024-05-09T08:24:58.793Z,96642.97
2024-05-09T08:26:00.508Z,96643.81
2024-05-09T08:27:02.470Z,96644.47
2024-05-09T08:28:05.110Z,96639.81
2024-05-09T08:29:06.860Z,96633.53
2024-05-09T08:30:15.427Z,96641.19
2024-05-09T08:31:23.212Z,96632.63
2024-05-09T08:32:27.311Z,96645.94
2024-05-09T08:33:31.782Z,96635.53
2024-05-09T08:34:33.763Z,96636.25
2024-05-09T08:35:36.289Z,96645.72
2024-05-09T08:36:39.865Z,96638.34
2024-05-09T08:37:43.619Z,96633.22
2024-05-09T08:38:45.578Z,96639.22
2024-05-09T08:39:47.316Z,96636.19
2024-05-09T08:40:52.298Z,96636.78
2024-05-09T08:41:54.113Z,96639.31
2024-05-09T08:42:57.380Z,96630.91
2024-05-09T08:43:59.186Z,96633.59
2024-05-09T08:45:01.046Z,96632.38
2024-05-09T08:46:04.662Z,96629.66
2024-05-09T08:47:09.214Z,96620.25
2024-05-09T08:48:12.492Z,96624.38
2024-05-09T08:49:15.833Z,96626.06
2024-05-09T08:50:31.409Z,96617.41
2024-05-09T08:51:39.354Z,96627.84
2024-05-09T08:52:41.175Z,96613.38
2024-05-09T08:53:42.927Z,96632.91
2024-05-09T08:54:45.236Z,96621.53
2024-05-09T08:55:47.324Z,96619.25
2024-05-09T08:56:49.953Z,96627.47
2024-05-09T08:57:52.478Z,96622.03
2024-05-09T08:58:59.907Z,96624.16
2024-05-09T09:00:07.879Z,96622.72
2024-05-09T09:01:12.383Z,96627.81
2024-05-09T09:02:14.926Z,96632.25
2024-05-09T09:03:22.796Z,96615.41
2024-05-09T09:04:25.040Z,96624.06
2024-05-09T09:05:31.152Z,96628.25
2024-05-09T09:06:33.312Z,96620.34
2024-05-09T09:07:35.366Z,96625.19
2024-05-09T09:08:40.246Z,96624.81
2024-05-09T09:09:43.583Z,96627.19
2024-05-09T09:10:47.674Z,96613.69
2024-05-09T09:11:49.584Z,96612.91
2024-05-09T09:12:59.600Z,96622.69
2024-05-09T09:14:01.377Z,96618.00
2024-05-09T09:15:03.059Z,96622.41
2024-05-09T09:16:05.224Z,96626.78
2024-05-09T09:17:16.261Z,96637.22
2024-05-09T09:18:18.613Z,96640.41
2024-05-09T09:19:22.870Z,96638.63
2024-05-09T09:20:35.498Z,96632.22
2024-05-09T09:21:38.593Z,96635.13
2024-05-09T09:22:40.309Z,96641.78
2024-05-09T09:23:42.122Z,96634.50
2024-05-09T09:24:43.945Z,96629.16
2024-05-09T09:25:45.762Z,96632.72
2024-05-09T09:26:47.510Z,96638.66
2024-05-09T09:27:49.269Z,96633.50
2024-05-09T09:28:51.775Z,96633.94
2024-05-09T09:29:53.466Z,96635.56
2024-05-09T09:31:01.454Z,96631.13
2024-05-09T09:32:08.570Z,96625.59
2024-05-09T09:33:10.768Z,96637.88
2024-05-09T09:34:12.869Z,96641.31
2024-05-09T09:35:17.075Z,96630.22
2024-05-09T09:36:19.267Z,96632.47
2024-05-09T09:37:23.551Z,96633.94
2024-05-09T09:38:26.876Z,96626.75
2024-05-09T09:39:31.173Z,96631.59
2024-05-09T09:40:46.717Z,96628.91
2024-05-09T09:41:51.690Z,96637.22
2024-05-09T09:42:57.649Z,96629.72
2024-05-09T09:44:00.452Z,96630.34
2024-05-09T09:45:05.382Z,96631.69
2024-05-09T09:46:11.744Z,96634.84
2024-05-09T09:47:15.219Z,96632.41
2024-05-09T09:48:17.326Z,96630.06
2024-05-09T09:49:19.505Z,96633.66
2024-05-09T09:50:27.872Z,96629.66
2024-05-09T09:51:36.080Z,96626.53
2024-05-09T09:52:38.096Z,96634.66
2024-05-09T09:53:40.350Z,96633.91
2024-05-09T09:54:44.342Z,96637.28
2024-05-09T09:55:47.040Z,96640.66
2024-05-09T09:56:49.128Z,96634.59
2024-05-09T09:57:51.094Z,96629.41
2024-05-09T09:58:53.229Z,96634.53
2024-05-09T09:59:55.595Z,96644.72
2024-05-09T10:00:57.344Z,96646.63
2024-05-09T10:01:59.278Z,96636.66
2024-05-09T10:03:01.813Z,96627.31
2024-05-09T10:04:05.013Z,96640.34
2024-05-09T10:05:07.635Z,96638.72
2024-05-09T10:06:10.993Z,96638.56
2024-05-09T10:07:13.443Z,96643.84
2024-05-09T10:08:16.079Z,96645.34
2024-05-09T10:09:18.333Z,96645.81
2024-05-09T10:10:30.418Z,96646.00
2024-05-09T10:11:41.868Z,96639.75
2024-05-09T10:13:13.527Z,96637.72
2024-05-09T10:14:20.687Z,96638.41
2024-05-09T10:15:22.485Z,96635.91
2024-05-09T10:16:24.532Z,96631.16
2024-05-09T10:17:26.465Z,96631.63
2024-05-09T10:18:36.755Z,96630.19
2024-05-09T10:19:38.612Z,96627.41
2024-05-09T10:20:44.230Z,96630.66
2024-05-09T10:21:46.852Z,96629.38
2024-05-09T10:22:51.584Z,96628.03
2024-05-09T10:24:02.881Z,96631.63
2024-05-09T10:25:06.753Z,96627.31
2024-05-09T10:26:08.587Z,96624.19
2024-05-09T10:27:10.338Z,96620.81
2024-05-09T10:28:12.376Z,96627.25
2024-05-09T10:29:15.665Z,96626.97
2024-05-09T10:30:29.745Z,96625.56
2024-05-09T10:31:39.397Z,96626.81
2024-05-09T10:32:41.397Z,96628.03
2024-05-09T10:33:51.846Z,96626.09
2024-05-09T10:35:11.807Z,96628.16
2024-05-09T10:36:14.105Z,96623.13
2024-05-09T10:37:16.071Z,96630.03
2024-05-09T10:38:18.254Z,96626.53
2024-05-09T10:39:21.189Z,96625.38
2024-05-09T10:40:28.781Z,96624.56
2024-05-09T10:41:33.188Z,96618.06
2024-05-09T10:42:36.155Z,96629.66
2024-05-09T10:43:41.380Z,96613.84
2024-05-09T10:44:43.138Z,96624.91
2024-05-09T10:45:44.930Z,96625.19
2024-05-09T10:46:46.678Z,96622.44
2024-05-09T10:47:48.518Z,96618.69
2024-05-09T10:48:50.729Z,96629.38
2024-05-09T10:49:52.831Z,96627.97
2024-05-09T10:50:54.803Z,96620.47
2024-05-09T10:51:56.654Z,96622.16
2024-05-09T10:52:58.435Z,96618.69
2024-05-09T10:54:00.139Z,96615.63
2024-05-09T10:55:05.412Z,96624.91
2024-05-09T10:56:07.658Z,96615.91
2024-05-09T10:57:09.343Z,96618.56
2024-05-09T10:58:19.978Z,96615.75
2024-05-09T10:59:21.759Z,96617.34
2024-05-09T11:00:30.358Z,96617.34
2024-05-09T11:01:37.407Z,96604.38
2024-05-09T11:02:39.442Z,96616.63
2024-05-09T11:03:41.699Z,96612.78
2024-05-09T11:04:46.526Z,96614.28
2024-05-09T11:05:48.749Z,96616.06
2024-05-09T11:06:50.491Z,96608.66
2024-05-09T11:07:52.273Z,96613.03
2024-05-09T11:08:54.134Z,96605.09
2024-05-09T11:09:55.962Z,96602.22
2024-05-09T11:10:59.523Z,96606.69
2024-05-09T11:12:01.950Z,96612.31
2024-05-09T11:13:03.721Z,96607.16
2024-05-09T11:14:14.599Z,96611.69
2024-05-09T11:15:17.271Z,96611.19
2024-05-09T11:16:21.058Z,96611.97
2024-05-09T11:17:23.272Z,96606.44
2024-05-09T11:18:29.750Z,96603.31
2024-05-09T11:19:41.943Z,96608.84
2024-05-09T11:20:43.844Z,96616.63
2024-05-09T11:21:51.265Z,96614.94
2024-05-09T11:22:53.094Z,96615.28
2024-05-09T11:23:54.986Z,96614.66
2024-05-09T11:24:56.849Z,96611.63
2024-05-09T11:25:59.342Z,96621.28
2024-05-09T11:27:05.454Z,96615.84
2024-05-09T11:28:07.287Z,96613.69
2024-05-09T11:29:09.038Z,96612.78
2024-05-09T11:31:24.906Z,96612.03
2024-05-09T11:32:30.387Z,96618.34
2024-05-09T11:33:32.355Z,96607.69
2024-05-09T11:34:34.507Z,96609.38
2024-05-09T11:35:36.385Z,96611.47
2024-05-09T11:36:38.299Z,96612.69
2024-05-09T11:37:41.118Z,96614.03
2024-05-09T11:38:43.058Z,96617.16
2024-05-09T11:39:45.019Z,96613.50
2024-05-09T11:40:46.900Z,96609.03
2024-05-09T11:41:48.764Z,96616.03
2024-05-09T11:42:53.158Z,96614.44
2024-05-09T11:43:56.597Z,96614.34
2024-05-09T11:44:58.350Z,96604.81
2024-05-09T11:46:00.916Z,96607.28
2024-05-09T11:47:04.879Z,96602.72
2024-05-09T11:48:07.225Z,96609.13
2024-05-09T11:49:09.908Z,96610.72
2024-05-09T11:50:19.131Z,96604.31
2024-05-09T11:51:28.265Z,96605.78
2024-05-09T11:52:30.006Z,96604.78
2024-05-09T11:53:31.751Z,96605.94
2024-05-09T11:54:33.543Z,96602.06
2024-05-09T11:55:36.585Z,96598.50
2024-05-09T11:56:38.526Z,96600.28
2024-05-09T11:57:40.333Z,96599.25
2024-05-09T11:58:42.118Z,96603.34
2024-05-09T11:59:44.405Z,96602.88
2024-05-09T12:00:46.738Z,96603.44
2024-05-09T12:01:48.914Z,96609.13
2024-05-09T12:02:52.658Z,96608.97
2024-05-09T12:03:54.848Z,96600.66
2024-05-09T12:04:56.771Z,96603.25
2024-05-09T12:05:58.794Z,96602.91
2024-05-09T12:07:00.805Z,96590.84
2024-05-09T12:08:02.834Z,96593.31
2024-05-09T12:09:04.616Z,96596.88
2024-05-09T12:10:11.666Z,96595.28
2024-05-09T12:11:16.578Z,96583.84
2024-05-09T12:12:18.635Z,96592.59
2024-05-09T12:13:20.595Z,96587.78
2024-05-09T12:14:22.437Z,96583.00
2024-05-09T12:15:24.182Z,96586.16
2024-05-09T12:16:26.236Z,96587.03
2024-05-09T12:17:28.932Z,96590.06
2024-05-09T12:18:31.586Z,96582.03
2024-05-09T12:19:33.513Z,96590.34
2024-05-09T12:20:38.506Z,96585.06
2024-05-09T12:21:41.792Z,96584.56
2024-05-09T12:22:43.517Z,96588.94
2024-05-09T12:23:45.214Z,96580.53
2024-05-09T12:24:46.993Z,96581.78
2024-05-09T12:25:49.862Z,96578.06
2024-05-09T12:26:51.700Z,96582.53
2024-05-09T12:27:53.483Z,96578.16
2024-05-09T12:28:55.222Z,96585.03
2024-05-09T12:29:56.948Z,96576.50